sensor_id;sensor_type;location;lat;lon;timestamp;temperature;humidity
52609;DHT22;38503;48.544;12.142;2023-02-15T00:01:50;-1.20;99.90
52609;DHT22;38503;48.544;12.142;2023-02-15T00:04:22;-1.30;99.90
52609;DHT22;38503;48.544;12.142;2023-02-15T00:06:49;-1.30;99.90
52609;DHT22;38503;48.544;12.142;2023-02-15T00:09:16;-1.30;99.90
52609;DHT22;38503;48.544;12.142;2023-02-15T00:11:43;-1.30;99.90
52609;DHT22;38503;48.544;12.142;2023-02-15T00:14:21;-1.40;99.90
52609;DHT22;38503;48.544;12.142;2023-02-15T00:16:50;-1.40;99.90
52609;DHT22;38503;48.544;12.142;2023-02-15T00:19:19;-1.50;99.90
52609;DHT22;38503;48.544;12.142;2023-02-15T00:21:47;-1.50;99.90
52609;DHT22;38503;48.544;12.142;2023-02-15T00:24:15;-1.50;99.90
52609;DHT22;38503;48.544;12.142;2023-02-15T00:26:43;-1.40;99.90
52609;DHT22;38503;48.544;12.142;2023-02-15T00:29:11;-1.50;99.90
52609;DHT22;38503;48.544;12.142;2023-02-15T00:31:38;-1.50;99.90
52609;DHT22;38503;48.544;12.142;2023-02-15T00:34:09;-1.50;99.90
52609;DHT22;38503;48.544;12.142;2023-02-15T00:36:37;-1.50;99.90
52609;DHT22;38503;48.544;12.142;2023-02-15T00:39:04;-1.40;99.90
52609;DHT22;38503;48.544;12.142;2023-02-15T00:41:32;-1.40;99.90
52609;DHT22;38503;48.544;12.142;2023-02-15T00:43:59;-1.40;99.90
52609;DHT22;38503;48.544;12.142;2023-02-15T00:46:26;-1.50;99.90
52609;DHT22;38503;48.544;12.142;2023-02-15T00:48:53;-1.50;99.90
52609;DHT22;38503;48.544;12.142;2023-02-15T00:51:20;-1.50;99.90
52609;DHT22;38503;48.544;12.142;2023-02-15T00:53:47;-1.50;99.90
52609;DHT22;38503;48.544;12.142;2023-02-15T00:56:15;-1.50;99.90
52609;DHT22;38503;48.544;12.142;2023-02-15T00:58:42;-1.30;99.90
52609;DHT22;38503;48.544;12.142;2023-02-15T01:01:14;-1.40;99.90
52609;DHT22;38503;48.544;12.142;2023-02-15T01:03:41;-1.30;99.90
52609;DHT22;38503;48.544;12.142;2023-02-15T01:06:09;-1.40;99.90
52609;DHT22;38503;48.544;12.142;2023-02-15T01:08:36;-1.40;99.90
52609;DHT22;38503;48.544;12.142;2023-02-15T01:11:05;-1.40;99.90
52609;DHT22;38503;48.544;12.142;2023-02-15T01:13:33;-1.40;99.90
52609;DHT22;38503;48.544;12.142;2023-02-15T01:16:00;-1.40;99.90
52609;DHT22;38503;48.544;12.142;2023-02-15T01:18:28;-1.50;99.90
52609;DHT22;38503;48.544;12.142;2023-02-15T01:20:55;-1.50;99.90
52609;DHT22;38503;48.544;12.142;2023-02-15T01:23:21;-1.60;99.90
52609;DHT22;38503;48.544;12.142;2023-02-15T01:25:48;-1.70;99.90
52609;DHT22;38503;48.544;12.142;2023-02-15T01:28:15;-1.70;99.90
52609;DHT22;38503;48.544;12.142;2023-02-15T01:30:42;-1.80;99.90
52609;DHT22;38503;48.544;12.142;2023-02-15T01:33:10;-1.70;99.90
52609;DHT22;38503;48.544;12.142;2023-02-15T01:35:45;-1.60;99.90
52609;DHT22;38503;48.544;12.142;2023-02-15T01:38:13;-1.70;99.90
52609;DHT22;38503;48.544;12.142;2023-02-15T01:40:40;-1.70;99.90
52609;DHT22;38503;48.544;12.142;2023-02-15T01:43:10;-1.70;99.90
52609;DHT22;38503;48.544;12.142;2023-02-15T01:45:38;-1.70;99.90
52609;DHT22;38503;48.544;12.142;2023-02-15T01:48:26;-1.70;99.90
52609;DHT22;38503;48.544;12.142;2023-02-15T01:51:00;-1.70;99.90
52609;DHT22;38503;48.544;12.142;2023-02-15T01:53:38;-1.70;99.90
52609;DHT22;38503;48.544;12.142;2023-02-15T01:56:15;-1.70;99.90
52609;DHT22;38503;48.544;12.142;2023-02-15T01:58:44;-1.60;99.90
52609;DHT22;38503;48.544;12.142;2023-02-15T02:01:12;-1.70;99.90
52609;DHT22;38503;48.544;12.142;2023-02-15T02:06:15;-1.60;99.90
52609;DHT22;38503;48.544;12.142;2023-02-15T02:08:42;-1.70;99.90
52609;DHT22;38503;48.544;12.142;2023-02-15T02:11:11;-1.70;99.90
52609;DHT22;38503;48.544;12.142;2023-02-15T02:13:40;-1.70;99.90
52609;DHT22;38503;48.544;12.142;2023-02-15T02:26:40;-1.80;99.90
52609;DHT22;38503;48.544;12.142;2023-02-15T02:29:21;-1.90;99.90
52609;DHT22;38503;48.544;12.142;2023-02-15T02:37:34;-1.80;99.90
52609;DHT22;38503;48.544;12.142;2023-02-15T02:40:29;-1.90;99.90
52609;DHT22;38503;48.544;12.142;2023-02-15T02:43:18;-1.90;99.90
52609;DHT22;38503;48.544;12.142;2023-02-15T02:45:55;-1.90;99.90
52609;DHT22;38503;48.544;12.142;2023-02-15T02:48:30;-1.90;99.90
52609;DHT22;38503;48.544;12.142;2023-02-15T02:50:58;-1.90;99.90
52609;DHT22;38503;48.544;12.142;2023-02-15T02:53:27;-1.80;99.90
52609;DHT22;38503;48.544;12.142;2023-02-15T02:56:14;-1.80;99.90
52609;DHT22;38503;48.544;12.142;2023-02-15T02:58:49;-1.80;99.90
52609;DHT22;38503;48.544;12.142;2023-02-15T03:01:24;-1.80;99.90
52609;DHT22;38503;48.544;12.142;2023-02-15T03:03:57;-1.90;99.90
52609;DHT22;38503;48.544;12.142;2023-02-15T03:06:36;-1.90;99.90
52609;DHT22;38503;48.544;12.142;2023-02-15T03:09:21;-1.80;99.90
52609;DHT22;38503;48.544;12.142;2023-02-15T03:11:50;-1.80;99.90
52609;DHT22;38503;48.544;12.142;2023-02-15T03:14:18;-1.80;99.90
52609;DHT22;38503;48.544;12.142;2023-02-15T03:16:47;-1.90;99.90
52609;DHT22;38503;48.544;12.142;2023-02-15T03:19:25;-1.90;99.90
52609;DHT22;38503;48.544;12.142;2023-02-15T03:22:12;-1.80;99.90
52609;DHT22;38503;48.544;12.142;2023-02-15T03:27:21;-1.90;99.90
52609;DHT22;38503;48.544;12.142;2023-02-15T03:29:52;-1.90;99.90
52609;DHT22;38503;48.544;12.142;2023-02-15T03:32:20;-2.00;99.90
52609;DHT22;38503;48.544;12.142;2023-02-15T03:34:47;-2.00;99.90
52609;DHT22;38503;48.544;12.142;2023-02-15T03:37:36;-2.00;99.90
52609;DHT22;38503;48.544;12.142;2023-02-15T03:40:32;-2.00;99.90
52609;DHT22;38503;48.544;12.142;2023-02-15T03:43:28;-1.90;99.90
52609;DHT22;38503;48.544;12.142;2023-02-15T03:46:02;-2.10;99.90
52609;DHT22;38503;48.544;12.142;2023-02-15T03:48:39;-2.10;99.90
52609;DHT22;38503;48.544;12.142;2023-02-15T03:51:10;-2.00;99.90
52609;DHT22;38503;48.544;12.142;2023-02-15T03:53:57;-1.80;99.90
52609;DHT22;38503;48.544;12.142;2023-02-15T03:56:25;-1.80;99.90
52609;DHT22;38503;48.544;12.142;2023-02-15T03:58:52;-1.80;99.90
52609;DHT22;38503;48.544;12.142;2023-02-15T04:01:40;-1.80;99.90
52609;DHT22;38503;48.544;12.142;2023-02-15T04:06:57;-1.90;99.90
52609;DHT22;38503;48.544;12.142;2023-02-15T04:09:24;-2.00;99.90
52609;DHT22;38503;48.544;12.142;2023-02-15T04:12:09;-2.00;99.90
52609;DHT22;38503;48.544;12.142;2023-02-15T04:14:36;-2.00;99.90
52609;DHT22;38503;48.544;12.142;2023-02-15T04:17:21;-2.00;99.90
52609;DHT22;38503;48.544;12.142;2023-02-15T04:19:48;-1.90;99.90
52609;DHT22;38503;48.544;12.142;2023-02-15T04:22:33;-1.90;99.90
52609;DHT22;38503;48.544;12.142;2023-02-15T04:25:19;-1.90;99.90
52609;DHT22;38503;48.544;12.142;2023-02-15T04:27:51;-1.80;99.90
52609;DHT22;38503;48.544;12.142;2023-02-15T04:30:21;-1.80;99.90
52609;DHT22;38503;48.544;12.142;2023-02-15T04:32:47;-2.00;99.90
52609;DHT22;38503;48.544;12.142;2023-02-15T04:35:15;-2.00;99.90
52609;DHT22;38503;48.544;12.142;2023-02-15T04:37:42;-2.00;99.90
52609;DHT22;38503;48.544;12.142;2023-02-15T04:40:12;-2.00;99.90
52609;DHT22;38503;48.544;12.142;2023-02-15T04:42:39;-2.00;99.90
52609;DHT22;38503;48.544;12.142;2023-02-15T04:45:06;-1.90;99.90
52609;DHT22;38503;48.544;12.142;2023-02-15T04:47:33;-1.90;99.90
52609;DHT22;38503;48.544;12.142;2023-02-15T04:50:00;-2.00;99.90
52609;DHT22;38503;48.544;12.142;2023-02-15T04:52:27;-1.90;99.90
52609;DHT22;38503;48.544;12.142;2023-02-15T04:54:54;-2.00;99.90
52609;DHT22;38503;48.544;12.142;2023-02-15T04:57:21;-2.00;99.90
52609;DHT22;38503;48.544;12.142;2023-02-15T04:59:47;-2.00;99.90
52609;DHT22;38503;48.544;12.142;2023-02-15T05:02:14;-2.10;99.90
52609;DHT22;38503;48.544;12.142;2023-02-15T05:04:41;-2.00;99.90
52609;DHT22;38503;48.544;12.142;2023-02-15T05:07:08;-2.00;99.90
52609;DHT22;38503;48.544;12.142;2023-02-15T05:09:34;-1.90;99.90
52609;DHT22;38503;48.544;12.142;2023-02-15T05:12:01;-1.90;99.90
52609;DHT22;38503;48.544;12.142;2023-02-15T05:14:28;-1.90;99.90
52609;DHT22;38503;48.544;12.142;2023-02-15T05:16:55;-1.90;99.90
52609;DHT22;38503;48.544;12.142;2023-02-15T05:19:21;-2.00;99.90
52609;DHT22;38503;48.544;12.142;2023-02-15T05:21:51;-2.00;99.90
52609;DHT22;38503;48.544;12.142;2023-02-15T05:24:17;-2.00;99.90
52609;DHT22;38503;48.544;12.142;2023-02-15T05:27:03;-2.00;99.90
52609;DHT22;38503;48.544;12.142;2023-02-15T05:29:48;-2.00;99.90
52609;DHT22;38503;48.544;12.142;2023-02-15T05:32:15;-2.00;99.90
52609;DHT22;38503;48.544;12.142;2023-02-15T05:34:42;-2.00;99.90
52609;DHT22;38503;48.544;12.142;2023-02-15T05:37:09;-2.00;99.90
52609;DHT22;38503;48.544;12.142;2023-02-15T05:39:36;-2.00;99.90
52609;DHT22;38503;48.544;12.142;2023-02-15T05:42:03;-2.00;99.90
52609;DHT22;38503;48.544;12.142;2023-02-15T05:44:29;-2.00;99.90
52609;DHT22;38503;48.544;12.142;2023-02-15T05:46:56;-2.10;99.90
52609;DHT22;38503;48.544;12.142;2023-02-15T05:49:23;-1.90;99.90
52609;DHT22;38503;48.544;12.142;2023-02-15T05:51:50;-2.00;99.90
52609;DHT22;38503;48.544;12.142;2023-02-15T05:54:16;-2.00;99.90
52609;DHT22;38503;48.544;12.142;2023-02-15T05:56:43;-2.00;99.90
52609;DHT22;38503;48.544;12.142;2023-02-15T05:59:10;-2.00;99.90
52609;DHT22;38503;48.544;12.142;2023-02-15T06:01:37;-2.00;99.90
52609;DHT22;38503;48.544;12.142;2023-02-15T06:04:04;-2.00;99.90
52609;DHT22;38503;48.544;12.142;2023-02-15T06:06:31;-2.00;99.90
52609;DHT22;38503;48.544;12.142;2023-02-15T06:08:57;-2.00;99.90
52609;DHT22;38503;48.544;12.142;2023-02-15T06:11:24;-1.90;99.90
52609;DHT22;38503;48.544;12.142;2023-02-15T06:13:51;-1.90;99.90
52609;DHT22;38503;48.544;12.142;2023-02-15T06:16:18;-1.90;99.90
52609;DHT22;38503;48.544;12.142;2023-02-15T06:18:45;-1.80;99.90
52609;DHT22;38503;48.544;12.142;2023-02-15T06:21:11;-1.80;99.90
52609;DHT22;38503;48.544;12.142;2023-02-15T06:23:38;-1.80;99.90
52609;DHT22;38503;48.544;12.142;2023-02-15T06:26:05;-2.10;99.90
52609;DHT22;38503;48.544;12.142;2023-02-15T06:28:32;-2.00;99.90
52609;DHT22;38503;48.544;12.142;2023-02-15T06:30:58;-2.00;99.90
52609;DHT22;38503;48.544;12.142;2023-02-15T06:33:26;-1.90;99.90
52609;DHT22;38503;48.544;12.142;2023-02-15T06:35:52;-2.00;99.90
52609;DHT22;38503;48.544;12.142;2023-02-15T06:38:20;-2.00;99.90
52609;DHT22;38503;48.544;12.142;2023-02-15T06:40:46;-2.00;99.90
52609;DHT22;38503;48.544;12.142;2023-02-15T06:43:13;-2.10;99.90
52609;DHT22;38503;48.544;12.142;2023-02-15T06:45:41;-2.00;99.90
52609;DHT22;38503;48.544;12.142;2023-02-15T06:48:08;-1.90;99.90
52609;DHT22;38503;48.544;12.142;2023-02-15T06:50:34;-1.80;99.90
52609;DHT22;38503;48.544;12.142;2023-02-15T06:53:01;-1.80;99.90
52609;DHT22;38503;48.544;12.142;2023-02-15T06:55:28;-1.80;99.90
52609;DHT22;38503;48.544;12.142;2023-02-15T06:57:55;-1.80;99.90
52609;DHT22;38503;48.544;12.142;2023-02-15T07:00:22;-1.80;99.90
52609;DHT22;38503;48.544;12.142;2023-02-15T07:02:57;-1.70;99.90
52609;DHT22;38503;48.544;12.142;2023-02-15T07:05:27;-1.60;99.90
52609;DHT22;38503;48.544;12.142;2023-02-15T07:07:58;-1.50;99.90
52609;DHT22;38503;48.544;12.142;2023-02-15T07:10:25;-1.40;99.90
52609;DHT22;38503;48.544;12.142;2023-02-15T07:12:53;-1.50;99.90
52609;DHT22;38503;48.544;12.142;2023-02-15T07:15:20;-1.50;99.90
52609;DHT22;38503;48.544;12.142;2023-02-15T07:17:47;-1.50;99.90
52609;DHT22;38503;48.544;12.142;2023-02-15T07:20:17;-1.60;99.90
52609;DHT22;38503;48.544;12.142;2023-02-15T07:22:45;-1.70;99.90
52609;DHT22;38503;48.544;12.142;2023-02-15T07:25:12;-1.70;99.90
52609;DHT22;38503;48.544;12.142;2023-02-15T07:27:40;-1.60;99.90
52609;DHT22;38503;48.544;12.142;2023-02-15T07:30:08;-1.50;99.90
52609;DHT22;38503;48.544;12.142;2023-02-15T07:32:36;-1.60;99.90
52609;DHT22;38503;48.544;12.142;2023-02-15T07:35:10;-1.80;99.90
52609;DHT22;38503;48.544;12.142;2023-02-15T07:37:37;-1.80;99.90
52609;DHT22;38503;48.544;12.142;2023-02-15T07:40:04;-1.90;99.90
52609;DHT22;38503;48.544;12.142;2023-02-15T07:42:31;-1.90;99.90
52609;DHT22;38503;48.544;12.142;2023-02-15T07:44:58;-1.90;99.90
52609;DHT22;38503;48.544;12.142;2023-02-15T07:47:26;-1.90;99.90
52609;DHT22;38503;48.544;12.142;2023-02-15T07:49:53;-1.90;99.90
52609;DHT22;38503;48.544;12.142;2023-02-15T07:52:20;-1.80;99.90
52609;DHT22;38503;48.544;12.142;2023-02-15T07:54:47;-1.70;99.90
52609;DHT22;38503;48.544;12.142;2023-02-15T07:57:13;-1.60;99.90
52609;DHT22;38503;48.544;12.142;2023-02-15T07:59:40;-1.40;99.90
52609;DHT22;38503;48.544;12.142;2023-02-15T08:02:10;-1.30;99.90
52609;DHT22;38503;48.544;12.142;2023-02-15T08:04:37;-1.70;99.90
52609;DHT22;38503;48.544;12.142;2023-02-15T08:07:04;-1.30;99.90
52609;DHT22;38503;48.544;12.142;2023-02-15T08:09:30;-1.20;99.90
52609;DHT22;38503;48.544;12.142;2023-02-15T08:11:57;-1.10;99.90
52609;DHT22;38503;48.544;12.142;2023-02-15T08:14:24;-1.10;99.90
52609;DHT22;38503;48.544;12.142;2023-02-15T08:16:53;-1.10;99.90
52609;DHT22;38503;48.544;12.142;2023-02-15T08:19:22;-1.30;99.90
52609;DHT22;38503;48.544;12.142;2023-02-15T08:22:00;-1.30;99.90
52609;DHT22;38503;48.544;12.142;2023-02-15T08:24:29;-1.40;99.90
52609;DHT22;38503;48.544;12.142;2023-02-15T08:26:56;-1.30;99.90
52609;DHT22;38503;48.544;12.142;2023-02-15T08:29:26;-1.40;99.90
52609;DHT22;38503;48.544;12.142;2023-02-15T08:31:55;-1.50;99.90
52609;DHT22;38503;48.544;12.142;2023-02-15T08:34:25;-1.60;99.90
52609;DHT22;38503;48.544;12.142;2023-02-15T08:36:52;-1.40;99.90
52609;DHT22;38503;48.544;12.142;2023-02-15T08:39:19;-1.30;99.90
52609;DHT22;38503;48.544;12.142;2023-02-15T08:41:47;-1.30;99.90
52609;DHT22;38503;48.544;12.142;2023-02-15T08:44:16;-1.30;99.90
52609;DHT22;38503;48.544;12.142;2023-02-15T08:46:44;-1.30;99.90
52609;DHT22;38503;48.544;12.142;2023-02-15T08:49:20;-1.20;99.90
52609;DHT22;38503;48.544;12.142;2023-02-15T08:51:47;-1.20;99.90
52609;DHT22;38503;48.544;12.142;2023-02-15T08:54:20;-1.20;99.90
52609;DHT22;38503;48.544;12.142;2023-02-15T08:56:48;-1.00;99.90
52609;DHT22;38503;48.544;12.142;2023-02-15T08:59:17;-1.10;99.90
52609;DHT22;38503;48.544;12.142;2023-02-15T09:01:44;-1.10;99.90
52609;DHT22;38503;48.544;12.142;2023-02-15T09:04:12;-1.20;99.90
52609;DHT22;38503;48.544;12.142;2023-02-15T09:06:41;-1.00;99.90
52609;DHT22;38503;48.544;12.142;2023-02-15T09:09:08;-0.70;99.90
52609;DHT22;38503;48.544;12.142;2023-02-15T09:11:40;-0.40;99.90
52609;DHT22;38503;48.544;12.142;2023-02-15T09:14:10;-0.30;99.90
52609;DHT22;38503;48.544;12.142;2023-02-15T09:16:40;-0.30;99.90
52609;DHT22;38503;48.544;12.142;2023-02-15T09:19:08;0.00;99.90
52609;DHT22;38503;48.544;12.142;2023-02-15T09:21:36;-0.10;99.90
52609;DHT22;38503;48.544;12.142;2023-02-15T09:24:06;-0.30;99.90
52609;DHT22;38503;48.544;12.142;2023-02-15T09:26:35;-0.50;99.90
52609;DHT22;38503;48.544;12.142;2023-02-15T09:29:04;-0.70;99.90
52609;DHT22;38503;48.544;12.142;2023-02-15T09:31:33;-0.60;99.90
52609;DHT22;38503;48.544;12.142;2023-02-15T09:34:01;-0.40;99.90
52609;DHT22;38503;48.544;12.142;2023-02-15T09:36:33;-0.40;99.90
52609;DHT22;38503;48.544;12.142;2023-02-15T09:39:21;-0.50;99.90
52609;DHT22;38503;48.544;12.142;2023-02-15T09:44:57;-0.50;99.90
52609;DHT22;38503;48.544;12.142;2023-02-15T09:50:29;0.00;99.90
52609;DHT22;38503;48.544;12.142;2023-02-15T09:56:19;-0.20;99.90
52609;DHT22;38503;48.544;12.142;2023-02-15T10:07:05;-0.20;99.90
52609;DHT22;38503;48.544;12.142;2023-02-15T10:12:32;-0.30;99.90
52609;DHT22;38503;48.544;12.142;2023-02-15T10:15:17;-0.20;99.90
52609;DHT22;38503;48.544;12.142;2023-02-15T10:28:27;0.10;99.90
52609;DHT22;38503;48.544;12.142;2023-02-15T10:34:17;0.20;99.90
52609;DHT22;38503;48.544;12.142;2023-02-15T10:42:20;0.10;99.90
52609;DHT22;38503;48.544;12.142;2023-02-15T10:45:23;0.00;99.90
52609;DHT22;38503;48.544;12.142;2023-02-15T11:01:11;0.70;99.90
52609;DHT22;38503;48.544;12.142;2023-02-15T11:06:11;0.60;99.90
52609;DHT22;38503;48.544;12.142;2023-02-15T11:08:44;0.70;99.90
52609;DHT22;38503;48.544;12.142;2023-02-15T11:11:15;0.80;99.90
52609;DHT22;38503;48.544;12.142;2023-02-15T11:13:50;1.00;99.90
52609;DHT22;38503;48.544;12.142;2023-02-15T11:16:32;1.10;99.90
52609;DHT22;38503;48.544;12.142;2023-02-15T11:19:13;0.70;99.90
52609;DHT22;38503;48.544;12.142;2023-02-15T11:21:46;1.10;99.90
52609;DHT22;38503;48.544;12.142;2023-02-15T11:24:18;1.00;99.90
52609;DHT22;38503;48.544;12.142;2023-02-15T11:26:57;1.20;99.90
52609;DHT22;38503;48.544;12.142;2023-02-15T11:29:36;1.20;99.90
52609;DHT22;38503;48.544;12.142;2023-02-15T11:32:17;1.40;99.90
52609;DHT22;38503;48.544;12.142;2023-02-15T11:37:51;1.70;99.90
52609;DHT22;38503;48.544;12.142;2023-02-15T11:40:30;1.80;99.90
52609;DHT22;38503;48.544;12.142;2023-02-15T11:43:06;1.90;99.90
52609;DHT22;38503;48.544;12.142;2023-02-15T11:45:41;2.10;99.90
52609;DHT22;38503;48.544;12.142;2023-02-15T11:48:10;2.10;99.90
52609;DHT22;38503;48.544;12.142;2023-02-15T11:50:38;2.20;99.90
52609;DHT22;38503;48.544;12.142;2023-02-15T11:53:12;2.10;99.90
52609;DHT22;38503;48.544;12.142;2023-02-15T11:55:43;2.00;99.90
52609;DHT22;38503;48.544;12.142;2023-02-15T11:58:39;1.80;99.90
52609;DHT22;38503;48.544;12.142;2023-02-15T12:01:33;1.70;99.90
52609;DHT22;38503;48.544;12.142;2023-02-15T12:04:18;1.80;99.90
52609;DHT22;38503;48.544;12.142;2023-02-15T12:07:03;2.20;99.90
52609;DHT22;38503;48.544;12.142;2023-02-15T12:14:56;1.80;99.90
52609;DHT22;38503;48.544;12.142;2023-02-15T12:17:26;1.50;99.90
52609;DHT22;38503;48.544;12.142;2023-02-15T12:19:56;1.70;99.90
52609;DHT22;38503;48.544;12.142;2023-02-15T12:22:33;1.90;99.90
52609;DHT22;38503;48.544;12.142;2023-02-15T12:27:47;1.80;99.90
52609;DHT22;38503;48.544;12.142;2023-02-15T12:30:35;1.80;99.90
52609;DHT22;38503;48.544;12.142;2023-02-15T12:33:19;2.20;99.90
52609;DHT22;38503;48.544;12.142;2023-02-15T12:38:28;1.80;99.90
52609;DHT22;38503;48.544;12.142;2023-02-15T12:41:04;2.00;99.90
52609;DHT22;38503;48.544;12.142;2023-02-15T12:43:37;1.80;99.90
52609;DHT22;38503;48.544;12.142;2023-02-15T12:46:20;1.70;99.90
52609;DHT22;38503;48.544;12.142;2023-02-15T12:49:11;1.90;99.90
52609;DHT22;38503;48.544;12.142;2023-02-15T12:54:43;1.80;99.90
52609;DHT22;38503;48.544;12.142;2023-02-15T13:00:00;1.90;99.90
52609;DHT22;38503;48.544;12.142;2023-02-15T13:05:17;2.00;99.90
52609;DHT22;38503;48.544;12.142;2023-02-15T13:07:49;1.80;99.90
52609;DHT22;38503;48.544;12.142;2023-02-15T13:10:23;1.70;99.90
52609;DHT22;38503;48.544;12.142;2023-02-15T13:12:51;1.80;99.90
52609;DHT22;38503;48.544;12.142;2023-02-15T13:15:51;1.90;99.90
52609;DHT22;38503;48.544;12.142;2023-02-15T13:18:32;2.00;99.90
52609;DHT22;38503;48.544;12.142;2023-02-15T13:21:20;2.00;99.90
52609;DHT22;38503;48.544;12.142;2023-02-15T13:26:49;1.90;99.90
52609;DHT22;38503;48.544;12.142;2023-02-15T13:29:36;1.90;99.90
52609;DHT22;38503;48.544;12.142;2023-02-15T13:32:11;2.10;99.90
52609;DHT22;38503;48.544;12.142;2023-02-15T13:34:42;2.20;99.90
52609;DHT22;38503;48.544;12.142;2023-02-15T13:37:34;2.40;99.90
52609;DHT22;38503;48.544;12.142;2023-02-15T13:40:22;2.40;99.90
52609;DHT22;38503;48.544;12.142;2023-02-15T13:42:56;2.20;99.90
52609;DHT22;38503;48.544;12.142;2023-02-15T13:48:27;2.50;99.90
52609;DHT22;38503;48.544;12.142;2023-02-15T14:05:15;1.80;99.90
52609;DHT22;38503;48.544;12.142;2023-02-15T14:10:44;2.10;99.90
52609;DHT22;38503;48.544;12.142;2023-02-15T14:15:47;2.20;99.90
52609;DHT22;38503;48.544;12.142;2023-02-15T14:29:51;2.10;99.90
52609;DHT22;38503;48.544;12.142;2023-02-15T14:32:38;2.10;99.90
52609;DHT22;38503;48.544;12.142;2023-02-15T14:35:16;2.10;99.90
52609;DHT22;38503;48.544;12.142;2023-02-15T14:38:13;2.10;99.90
52609;DHT22;38503;48.544;12.142;2023-02-15T14:41:12;2.10;99.90
52609;DHT22;38503;48.544;12.142;2023-02-15T14:44:21;2.10;99.90
52609;DHT22;38503;48.544;12.142;2023-02-15T14:47:15;2.00;99.90
52609;DHT22;38503;48.544;12.142;2023-02-15T14:49:45;2.10;99.90
52609;DHT22;38503;48.544;12.142;2023-02-15T14:52:12;1.90;99.90
52609;DHT22;38503;48.544;12.142;2023-02-15T14:59:54;2.00;99.90
52609;DHT22;38503;48.544;12.142;2023-02-15T15:07:58;2.00;99.90
52609;DHT22;38503;48.544;12.142;2023-02-15T15:12:57;2.10;99.90
52609;DHT22;38503;48.544;12.142;2023-02-15T15:20:45;2.10;99.90
52609;DHT22;38503;48.544;12.142;2023-02-15T15:47:48;1.80;99.90
52609;DHT22;38503;48.544;12.142;2023-02-15T15:50:32;1.70;99.90
52609;DHT22;38503;48.544;12.142;2023-02-15T15:53:01;1.60;99.90
52609;DHT22;38503;48.544;12.142;2023-02-15T15:55:30;1.60;99.90
52609;DHT22;38503;48.544;12.142;2023-02-15T15:58:04;1.40;99.90
52609;DHT22;38503;48.544;12.142;2023-02-15T16:01:01;1.50;99.90
52609;DHT22;38503;48.544;12.142;2023-02-15T16:03:27;1.50;99.90
52609;DHT22;38503;48.544;12.142;2023-02-15T16:05:56;1.50;99.90
52609;DHT22;38503;48.544;12.142;2023-02-15T16:08:32;1.50;99.90
52609;DHT22;38503;48.544;12.142;2023-02-15T16:11:15;1.40;99.90
52609;DHT22;38503;48.544;12.142;2023-02-15T16:13:43;1.30;99.90
52609;DHT22;38503;48.544;12.142;2023-02-15T16:16:13;1.30;99.90
52609;DHT22;38503;48.544;12.142;2023-02-15T16:18:40;1.20;99.90
52609;DHT22;38503;48.544;12.142;2023-02-15T16:21:18;1.20;99.90
52609;DHT22;38503;48.544;12.142;2023-02-15T16:23:59;1.20;99.90
52609;DHT22;38503;48.544;12.142;2023-02-15T16:26:44;1.20;99.90
52609;DHT22;38503;48.544;12.142;2023-02-15T16:29:17;1.30;99.90
52609;DHT22;38503;48.544;12.142;2023-02-15T16:32:04;1.20;99.90
52609;DHT22;38503;48.544;12.142;2023-02-15T16:34:32;1.20;99.90
52609;DHT22;38503;48.544;12.142;2023-02-15T16:37:16;1.00;99.90
52609;DHT22;38503;48.544;12.142;2023-02-15T16:39:45;1.00;99.90
52609;DHT22;38503;48.544;12.142;2023-02-15T16:42:15;0.90;99.90
52609;DHT22;38503;48.544;12.142;2023-02-15T16:44:45;1.00;99.90
52609;DHT22;38503;48.544;12.142;2023-02-15T16:47:36;1.00;99.90
52609;DHT22;38503;48.544;12.142;2023-02-15T16:50:06;1.00;99.90
52609;DHT22;38503;48.544;12.142;2023-02-15T16:52:37;0.90;99.90
52609;DHT22;38503;48.544;12.142;2023-02-15T16:55:05;0.90;99.90
52609;DHT22;38503;48.544;12.142;2023-02-15T16:57:36;0.80;99.90
52609;DHT22;38503;48.544;12.142;2023-02-15T17:00:08;0.80;99.90
52609;DHT22;38503;48.544;12.142;2023-02-15T17:03:00;0.80;99.90
52609;DHT22;38503;48.544;12.142;2023-02-15T17:10:42;0.90;99.90
52609;DHT22;38503;48.544;12.142;2023-02-15T17:13:16;0.90;99.90
52609;DHT22;38503;48.544;12.142;2023-02-15T17:18:24;0.70;99.90
52609;DHT22;38503;48.544;12.142;2023-02-15T17:20:57;0.70;99.90
52609;DHT22;38503;48.544;12.142;2023-02-15T17:25:56;0.70;99.90
52609;DHT22;38503;48.544;12.142;2023-02-15T17:28:30;0.60;99.90
52609;DHT22;38503;48.544;12.142;2023-02-15T17:30:58;0.60;99.90
52609;DHT22;38503;48.544;12.142;2023-02-15T17:38:32;0.60;99.90
52609;DHT22;38503;48.544;12.142;2023-02-15T17:40:59;0.60;99.90
52609;DHT22;38503;48.544;12.142;2023-02-15T17:43:27;0.60;99.90
52609;DHT22;38503;48.544;12.142;2023-02-15T17:45:54;0.60;99.90
52609;DHT22;38503;48.544;12.142;2023-02-15T17:48:25;0.60;99.90
52609;DHT22;38503;48.544;12.142;2023-02-15T17:50:58;0.60;99.90
52609;DHT22;38503;48.544;12.142;2023-02-15T17:53:27;0.60;99.90
52609;DHT22;38503;48.544;12.142;2023-02-15T17:55:54;0.60;99.90
52609;DHT22;38503;48.544;12.142;2023-02-15T17:58:21;0.50;99.90
52609;DHT22;38503;48.544;12.142;2023-02-15T18:00:59;0.50;99.90
52609;DHT22;38503;48.544;12.142;2023-02-15T18:03:48;0.50;99.90
52609;DHT22;38503;48.544;12.142;2023-02-15T18:06:36;0.40;99.90
52609;DHT22;38503;48.544;12.142;2023-02-15T18:09:22;0.40;99.90
52609;DHT22;38503;48.544;12.142;2023-02-15T18:14:46;0.30;99.90
52609;DHT22;38503;48.544;12.142;2023-02-15T18:17:14;0.30;99.90
52609;DHT22;38503;48.544;12.142;2023-02-15T18:19:43;0.30;99.90
52609;DHT22;38503;48.544;12.142;2023-02-15T18:22:12;0.20;99.90
52609;DHT22;38503;48.544;12.142;2023-02-15T18:24:40;0.20;99.90
52609;DHT22;38503;48.544;12.142;2023-02-15T18:27:06;0.20;99.90
52609;DHT22;38503;48.544;12.142;2023-02-15T18:29:33;0.20;99.90
52609;DHT22;38503;48.544;12.142;2023-02-15T18:32:00;0.10;99.90
52609;DHT22;38503;48.544;12.142;2023-02-15T18:34:31;0.10;99.90
52609;DHT22;38503;48.544;12.142;2023-02-15T18:37:00;0.20;99.90
52609;DHT22;38503;48.544;12.142;2023-02-15T18:39:44;0.20;99.90
52609;DHT22;38503;48.544;12.142;2023-02-15T18:42:26;0.20;99.90
52609;DHT22;38503;48.544;12.142;2023-02-15T18:44:59;0.40;99.90
52609;DHT22;38503;48.544;12.142;2023-02-15T18:47:26;0.40;99.90
52609;DHT22;38503;48.544;12.142;2023-02-15T18:49:54;0.40;99.90
52609;DHT22;38503;48.544;12.142;2023-02-15T18:52:22;0.40;99.90
52609;DHT22;38503;48.544;12.142;2023-02-15T18:54:56;0.30;99.90
52609;DHT22;38503;48.544;12.142;2023-02-15T18:57:23;0.20;99.90
52609;DHT22;38503;48.544;12.142;2023-02-15T18:59:50;0.10;99.90
52609;DHT22;38503;48.544;12.142;2023-02-15T19:02:17;0.10;99.90
52609;DHT22;38503;48.544;12.142;2023-02-15T19:04:45;0.30;99.90
52609;DHT22;38503;48.544;12.142;2023-02-15T19:07:24;0.30;99.90
52609;DHT22;38503;48.544;12.142;2023-02-15T19:09:55;0.30;99.90
52609;DHT22;38503;48.544;12.142;2023-02-15T19:12:22;0.10;99.90
52609;DHT22;38503;48.544;12.142;2023-02-15T19:14:49;0.10;99.90